createdAt,value
2022-10-29T00:01:09.852Z,67.55
2022-10-29T00:03:42.410Z,67.74
2022-10-29T00:06:12.054Z,67.63
2022-10-29T00:08:41.934Z,67.66
2022-10-29T00:11:14.292Z,67.69
2022-10-29T00:13:43.120Z,67.78
2022-10-29T00:16:14.531Z,67.62
2022-10-29T00:18:43.774Z,67.55
2022-10-29T00:21:15.370Z,67.82
2022-10-29T00:23:44.014Z,67.66
2022-10-29T00:26:12.974Z,67.52
2022-10-29T00:28:41.490Z,67.84
2022-10-29T00:31:13.507Z,67.73
2022-10-29T00:33:42.448Z,67.74
2022-10-29T00:36:15.179Z,67.61
2022-10-29T00:38:44.497Z,67.66
2022-10-29T00:41:15.935Z,67.62
2022-10-29T00:43:49.177Z,67.77
2022-10-29T00:49:11.362Z,67.78
2022-10-29T00:51:40.266Z,67.80
2022-10-29T00:54:11.393Z,67.50
2022-10-29T00:56:46.526Z,67.70
2022-10-29T00:59:17.367Z,67.90
2022-10-29T01:01:49.022Z,67.88
2022-10-29T01:04:19.032Z,67.63
2022-10-29T01:06:47.773Z,67.65
2022-10-29T01:09:16.169Z,67.63
2022-10-29T01:11:56.835Z,68.04
2022-10-29T01:14:50.216Z,67.73
2022-10-29T01:17:38.309Z,67.73
2022-10-29T01:20:12.797Z,67.90
2022-10-29T01:23:04.331Z,67.64
2022-10-29T01:25:38.667Z,67.61
2022-10-29T01:28:19.575Z,67.88
2022-10-29T01:31:06.547Z,67.83
2022-10-29T01:33:55.494Z,67.96
2022-10-29T01:36:32.271Z,68.02
2022-10-29T01:39:12.396Z,67.90
2022-10-29T01:41:51.701Z,67.90
2022-10-29T01:44:48.242Z,67.69
2022-10-29T01:47:19.735Z,67.92
2022-10-29T01:49:53.250Z,67.94
2022-10-29T01:52:23.317Z,67.85
2022-10-29T01:54:51.983Z,68.20
2022-10-29T01:57:33.231Z,68.12
2022-10-29T02:00:12.403Z,68.07
2022-10-29T02:02:59.445Z,68.07
2022-10-29T02:06:01.930Z,67.85
2022-10-29T02:08:52.384Z,68.07
2022-10-29T02:11:25.713Z,68.39
2022-10-29T02:13:59.706Z,67.94
2022-10-29T02:16:30.241Z,68.16
2022-10-29T02:18:59.862Z,68.14
2022-10-29T02:21:28.296Z,68.05
2022-10-29T02:23:56.724Z,68.17
2022-10-29T02:26:25.250Z,67.91
2022-10-29T02:28:53.697Z,68.07
2022-10-29T02:31:22.121Z,68.20
2022-10-29T02:33:50.611Z,68.12
2022-10-29T02:36:19.036Z,68.13
2022-10-29T02:38:47.445Z,68.03
2022-10-29T02:41:15.921Z,68.12
2022-10-29T02:43:44.552Z,67.85
2022-10-29T02:46:18.439Z,67.94
2022-10-29T02:48:47.078Z,67.78
2022-10-29T02:51:17.054Z,68.16
2022-10-29T02:53:45.479Z,68.27
2022-10-29T02:56:13.945Z,68.10
2022-10-29T02:58:42.337Z,68.23
2022-10-29T03:01:10.975Z,68.36
2022-10-29T03:03:39.474Z,68.05
2022-10-29T03:06:16.117Z,68.26
2022-10-29T03:08:45.397Z,68.41
2022-10-29T03:11:13.805Z,68.15
2022-10-29T03:13:42.258Z,68.18
2022-10-29T03:16:10.819Z,68.20
2022-10-29T03:18:39.563Z,68.18
2022-10-29T03:21:08.196Z,68.04
2022-10-29T03:23:36.655Z,68.09
2022-10-29T03:26:05.250Z,68.17
2022-10-29T03:28:33.950Z,68.05
2022-10-29T03:31:02.723Z,68.01
2022-10-29T03:33:31.395Z,68.22
2022-10-29T03:36:01.952Z,68.09
2022-10-29T03:38:30.506Z,68.17
2022-10-29T03:40:59.168Z,68.15
2022-10-29T03:43:27.652Z,68.09
2022-10-29T03:45:57.806Z,68.45
2022-10-29T03:48:26.390Z,68.22
2022-10-29T03:50:56.638Z,68.41
2022-10-29T03:53:26.490Z,68.22
2022-10-29T03:55:56.849Z,68.39
2022-10-29T03:58:26.126Z,68.56
2022-10-29T04:00:55.466Z,68.62
2022-10-29T04:03:24.036Z,68.41
2022-10-29T04:05:52.835Z,68.60
2022-10-29T04:08:21.639Z,68.62
2022-10-29T04:10:51.201Z,68.77
2022-10-29T04:13:20.345Z,68.59
2022-10-29T04:15:48.761Z,68.70
2022-10-29T04:18:17.107Z,68.56
2022-10-29T04:22:06.057Z,68.57
2022-10-29T04:29:10.843Z,68.56
2022-10-29T04:31:39.172Z,68.53
2022-10-29T04:34:07.593Z,68.73
2022-10-29T04:36:36.644Z,68.74
2022-10-29T04:39:05.287Z,68.61
2022-10-29T04:41:33.745Z,68.65
2022-10-29T04:44:02.767Z,68.72
2022-10-29T04:46:31.251Z,68.90
2022-10-29T04:48:59.775Z,68.82
2022-10-29T04:51:28.245Z,69.09
2022-10-29T04:53:56.618Z,68.77
2022-10-29T04:56:25.125Z,68.78
2022-10-29T04:58:53.561Z,68.87
2022-10-29T05:01:22.078Z,68.95
2022-10-29T05:03:53.075Z,69.06
2022-10-29T05:06:22.725Z,69.09
2022-10-29T05:08:51.132Z,69.15
2022-10-29T05:11:19.498Z,69.26
2022-10-29T05:13:47.878Z,69.28
2022-10-29T05:16:16.338Z,69.24
2022-10-29T05:18:44.868Z,69.36
2022-10-29T05:21:13.313Z,69.50
2022-10-29T05:23:41.772Z,69.34
2022-10-29T05:26:10.166Z,69.40
2022-10-29T05:28:38.712Z,69.66
2022-10-29T05:31:07.526Z,69.47
2022-10-29T05:33:35.951Z,69.71
2022-10-29T05:36:04.717Z,69.62
2022-10-29T05:38:33.198Z,69.62
2022-10-29T05:41:01.757Z,69.49
2022-10-29T05:43:30.233Z,69.62
2022-10-29T05:45:58.529Z,69.52
2022-10-29T05:48:26.992Z,69.58
2022-10-29T05:50:57.415Z,69.97
2022-10-29T05:53:26.001Z,69.83
2022-10-29T05:55:54.422Z,69.89
2022-10-29T05:58:22.842Z,69.60
2022-10-29T06:00:51.564Z,69.89
2022-10-29T06:03:22.244Z,69.83
2022-10-29T06:05:51.016Z,69.82
2022-10-29T06:08:19.444Z,69.80
2022-10-29T06:10:47.825Z,69.88
2022-10-29T06:13:19.475Z,69.94
2022-10-29T06:15:50.116Z,69.95
2022-10-29T06:18:18.971Z,69.72
2022-10-29T06:20:47.335Z,69.92
2022-10-29T06:23:15.950Z,69.78
2022-10-29T06:25:44.507Z,69.71
2022-10-29T06:28:15.475Z,70.02
2022-10-29T06:30:49.129Z,69.72
2022-10-29T06:33:18.791Z,69.61
2022-10-29T06:35:48.229Z,69.62
2022-10-29T06:38:16.649Z,69.71
2022-10-29T06:40:53.792Z,69.79
2022-10-29T06:43:22.204Z,69.75
2022-10-29T06:45:50.978Z,69.52
2022-10-29T06:48:22.342Z,69.54
2022-10-29T06:50:51.942Z,69.41
2022-10-29T06:53:20.848Z,69.15
2022-10-29T06:55:49.585Z,69.50
2022-10-29T06:58:20.993Z,69.06
2022-10-29T07:00:49.539Z,69.07
2022-10-29T07:03:19.922Z,69.19
2022-10-29T07:05:58.127Z,69.29
2022-10-29T07:08:27.118Z,68.82
2022-10-29T07:10:55.694Z,68.90
2022-10-29T07:13:24.369Z,68.97
2022-10-29T07:15:52.732Z,68.78
2022-10-29T07:18:21.550Z,68.87
2022-10-29T07:20:50.032Z,68.63
2022-10-29T07:23:18.455Z,68.64
2022-10-29T07:25:47.388Z,68.65
2022-10-29T07:28:18.408Z,68.39
2022-10-29T07:30:48.498Z,68.33
2022-10-29T07:33:17.942Z,68.31
2022-10-29T07:35:46.964Z,68.41
2022-10-29T07:38:15.363Z,67.90
2022-10-29T07:40:49.585Z,67.83
2022-10-29T07:43:19.380Z,67.86
2022-10-29T07:45:51.961Z,67.83
2022-10-29T07:48:21.339Z,67.92
2022-10-29T07:50:50.200Z,67.72
2022-10-29T07:53:18.908Z,67.87
2022-10-29T07:55:53.680Z,67.83
2022-10-29T07:58:23.001Z,67.53
2022-10-29T08:00:51.612Z,67.38
2022-10-29T08:03:20.195Z,67.29
2022-10-29T08:05:55.343Z,67.50
2022-10-29T08:08:25.475Z,67.14
2022-10-29T08:10:59.863Z,67.34
2022-10-29T08:13:28.477Z,67.43
2022-10-29T08:15:57.260Z,67.08
2022-10-29T08:18:25.632Z,67.04
2022-10-29T08:20:54.082Z,67.07
2022-10-29T08:23:23.766Z,66.95
2022-10-29T08:25:52.262Z,66.80
2022-10-29T08:28:23.984Z,67.01
2022-10-29T08:30:54.437Z,66.88
2022-10-29T08:33:22.862Z,66.77
2022-10-29T08:35:52.731Z,66.88
2022-10-29T08:38:25.590Z,66.56
2022-10-29T08:41:24.750Z,66.80
2022-10-29T08:44:17.609Z,66.69
2022-10-29T08:46:45.947Z,66.53
2022-10-29T08:49:19.941Z,66.69
2022-10-29T08:52:01.044Z,66.65
2022-10-29T08:54:33.489Z,66.54
2022-10-29T08:57:13.001Z,66.40
2022-10-29T08:59:59.551Z,66.58
2022-10-29T09:02:30.172Z,66.39
2022-10-29T09:04:59.592Z,66.00
2022-10-29T09:08:02.153Z,65.73
2022-10-29T09:10:51.131Z,65.80
2022-10-29T09:13:45.557Z,65.48
2022-10-29T09:16:27.643Z,65.34
2022-10-29T09:19:19.054Z,65.49
2022-10-29T09:22:11.226Z,65.51
2022-10-29T09:24:52.169Z,65.42
2022-10-29T09:27:25.053Z,65.22
2022-10-29T09:30:05.470Z,65.10
2022-10-29T09:32:40.324Z,65.22
2022-10-29T09:35:15.717Z,64.91
2022-10-29T09:37:56.457Z,64.87
2022-10-29T09:40:33.425Z,64.94
2022-10-29T09:43:16.160Z,64.56
2022-10-29T09:46:10.759Z,64.33
2022-10-29T09:49:10.879Z,64.33
2022-10-29T09:52:05.605Z,64.08
2022-10-29T09:54:34.791Z,64.14
2022-10-29T09:57:04.671Z,64.28
2022-10-29T09:59:42.036Z,64.01
2022-10-29T10:02:42.717Z,64.19
2022-10-29T10:05:14.020Z,63.87
2022-10-29T10:07:42.760Z,63.82
2022-10-29T10:10:23.263Z,63.61
2022-10-29T10:12:52.079Z,63.42
2022-10-29T10:15:28.369Z,63.40
2022-10-29T10:18:00.752Z,63.17
2022-10-29T10:20:37.328Z,63.41
2022-10-29T10:23:27.234Z,63.42
2022-10-29T10:26:02.033Z,63.36
2022-10-29T10:28:36.146Z,63.14
2022-10-29T10:31:04.740Z,63.24
2022-10-29T10:33:35.364Z,63.00
2022-10-29T10:36:09.595Z,62.87
2022-10-29T10:38:50.782Z,62.93
2022-10-29T10:41:33.847Z,62.73
2022-10-29T10:44:04.755Z,62.78
2022-10-29T10:46:42.460Z,62.63
2022-10-29T10:49:37.727Z,62.33
2022-10-29T10:52:17.666Z,61.99
2022-10-29T10:54:56.312Z,61.81
2022-10-29T10:57:35.540Z,61.71
2022-10-29T11:00:16.076Z,61.48
2022-10-29T11:03:03.513Z,61.21
2022-10-29T11:05:49.975Z,60.95
2022-10-29T11:08:30.828Z,60.47
2022-10-29T11:11:05.944Z,60.37
2022-10-29T11:13:36.481Z,60.45
2022-10-29T11:16:31.798Z,59.83
2022-10-29T11:19:17.251Z,59.57
2022-10-29T11:22:04.388Z,59.39
2022-10-29T11:24:41.646Z,59.41
2022-10-29T11:27:12.998Z,58.86
2022-10-29T11:29:57.510Z,58.09
2022-10-29T11:32:33.710Z,57.59
2022-10-29T11:35:15.773Z,57.52
2022-10-29T11:38:16.471Z,57.02
2022-10-29T11:40:50.771Z,56.51
2022-10-29T11:43:21.780Z,56.39
2022-10-29T11:46:13.111Z,56.19
2022-10-29T11:49:13.911Z,55.74
2022-10-29T11:51:51.842Z,55.86
2022-10-29T11:54:42.141Z,55.74
2022-10-29T11:57:39.879Z,55.61
2022-10-29T12:00:21.349Z,55.53
2022-10-29T12:03:08.456Z,55.15
2022-10-29T12:05:44.345Z,54.89
2022-10-29T12:08:24.918Z,54.81
2022-10-29T12:11:12.355Z,54.17
2022-10-29T12:13:57.579Z,54.14
2022-10-29T12:17:09.163Z,54.05
2022-10-29T12:19:42.491Z,53.88
2022-10-29T12:22:23.455Z,53.45
2022-10-29T12:25:11.645Z,53.29
2022-10-29T12:27:49.027Z,52.88
2022-10-29T12:30:19.088Z,52.47
2022-10-29T12:33:05.452Z,52.42
2022-10-29T12:35:39.140Z,52.13
2022-10-29T12:38:23.585Z,52.12
2022-10-29T12:41:00.848Z,52.01
2022-10-29T12:43:32.089Z,52.04
2022-10-29T12:46:21.147Z,51.86
2022-10-29T12:48:56.027Z,51.69
2022-10-29T12:51:42.652Z,51.70
2022-10-29T12:54:23.544Z,51.28
2022-10-29T12:56:52.695Z,51.08
2022-10-29T12:59:29.547Z,51.04
2022-10-29T13:02:35.359Z,51.22
2022-10-29T13:05:07.097Z,50.84
2022-10-29T13:07:38.068Z,50.89
2022-10-29T13:10:21.926Z,50.51
2022-10-29T13:12:59.669Z,50.93
2022-10-29T13:15:34.367Z,50.31
2022-10-29T13:18:19.570Z,50.08
2022-10-29T13:20:50.724Z,49.92
2022-10-29T13:23:22.513Z,49.67
2022-10-29T13:25:52.049Z,49.65
2022-10-29T13:28:20.391Z,49.78
2022-10-29T13:31:12.923Z,49.07
2022-10-29T13:33:41.231Z,49.12
2022-10-29T13:36:16.112Z,49.20
2022-10-29T13:38:58.530Z,48.99
2022-10-29T13:41:44.287Z,49.12
2022-10-29T13:44:16.543Z,48.84
2022-10-29T13:47:01.749Z,48.98
2022-10-29T13:49:37.577Z,49.34
2022-10-29T13:52:09.079Z,49.59
2022-10-29T13:54:42.048Z,49.46
2022-10-29T13:57:19.550Z,49.55
2022-10-29T14:00:06.544Z,50.06
2022-10-29T14:03:04.580Z,50.04
2022-10-29T14:05:56.339Z,50.58
2022-10-29T14:08:49.263Z,50.74
2022-10-29T14:11:24.298Z,50.93
2022-10-29T14:13:57.565Z,51.08
2022-10-29T14:16:30.010Z,51.72
2022-10-29T14:19:12.371Z,51.73
2022-10-29T14:21:41.090Z,51.70
2022-10-29T14:24:11.534Z,51.77
2022-10-29T14:26:42.724Z,51.88
2022-10-29T14:29:22.765Z,51.81
2022-10-29T14:32:15.762Z,51.97
2022-10-29T14:34:45.456Z,52.17
2022-10-29T14:37:26.709Z,52.32
2022-10-29T14:39:59.775Z,52.53
2022-10-29T14:42:37.159Z,52.65
2022-10-29T14:45:17.442Z,52.67
2022-10-29T14:47:53.856Z,52.92
2022-10-29T14:50:25.535Z,52.83
2022-10-29T14:53:05.482Z,53.26
2022-10-29T14:55:38.709Z,53.22
2022-10-29T14:58:15.243Z,53.40
2022-10-29T15:00:55.952Z,53.37
2022-10-29T15:03:28.325Z,53.80
2022-10-29T15:06:12.743Z,53.73
2022-10-29T15:08:54.196Z,54.00
2022-10-29T15:11:39.588Z,54.26
2022-10-29T15:14:49.246Z,54.30
2022-10-29T15:17:25.924Z,54.45
2022-10-29T15:19:59.720Z,54.64
2022-10-29T15:22:34.944Z,54.71
2022-10-29T15:25:07.410Z,54.81
2022-10-29T15:27:37.298Z,54.98
2022-10-29T15:30:06.470Z,55.16
2022-10-29T15:32:35.140Z,55.22
2022-10-29T15:35:09.556Z,55.24
2022-10-29T15:37:46.221Z,55.25
2022-10-29T15:40:22.100Z,55.40
2022-10-29T15:42:52.141Z,55.56
2022-10-29T15:45:28.702Z,55.79
2022-10-29T15:47:59.776Z,55.84
2022-10-29T15:50:39.925Z,56.00
2022-10-29T15:53:16.887Z,56.10
2022-10-29T15:55:45.762Z,56.25
2022-10-29T15:58:23.398Z,56.32
2022-10-29T16:00:52.199Z,56.36
2022-10-29T16:03:23.433Z,56.50
2022-10-29T16:05:59.733Z,56.71
2022-10-29T16:08:32.507Z,56.78
2022-10-29T16:11:05.434Z,57.02
2022-10-29T16:13:35.065Z,56.93
2022-10-29T16:16:03.847Z,57.10
2022-10-29T16:18:32.224Z,57.24
2022-10-29T16:21:04.726Z,57.25
2022-10-29T16:23:38.657Z,57.38
2022-10-29T16:26:14.183Z,57.50
2022-10-29T16:28:44.110Z,57.67
2022-10-29T16:31:32.911Z,57.63
2022-10-29T16:34:04.631Z,57.73
2022-10-29T16:36:33.589Z,57.83
2022-10-29T16:39:02.009Z,57.92
2022-10-29T16:41:31.557Z,58.02
2022-10-29T16:44:00.510Z,58.07
2022-10-29T16:46:29.345Z,58.03
2022-10-29T16:48:57.861Z,58.16
2022-10-29T16:51:26.299Z,58.33
2022-10-29T16:53:54.712Z,58.30
2022-10-29T16:56:23.043Z,58.43
2022-10-29T16:58:51.403Z,58.44
2022-10-29T17:03:55.999Z,58.74
2022-10-29T17:06:24.458Z,58.60
2022-10-29T17:08:52.793Z,58.71
2022-10-29T17:11:22.077Z,58.67
2022-10-29T17:13:50.633Z,58.85
2022-10-29T17:16:19.051Z,58.81
2022-10-29T17:18:50.813Z,58.81
2022-10-29T17:21:19.574Z,58.95
2022-10-29T17:23:47.894Z,58.92
2022-10-29T17:26:18.599Z,59.01
2022-10-29T17:28:46.987Z,59.11
2022-10-29T17:31:15.386Z,59.15
2022-10-29T17:33:44.308Z,59.18
2022-10-29T17:36:15.383Z,59.27
2022-10-29T17:38:44.212Z,59.30
2022-10-29T17:41:13.142Z,59.28
2022-10-29T17:43:41.560Z,59.46
2022-10-29T17:46:10.166Z,59.62
2022-10-29T17:48:39.427Z,59.45
2022-10-29T17:51:08.722Z,59.54
2022-10-29T17:53:38.014Z,59.67
2022-10-29T17:56:07.535Z,59.69
2022-10-29T17:58:39.011Z,59.67
2022-10-29T18:01:09.948Z,59.84
2022-10-29T18:03:38.591Z,59.79
2022-10-29T18:06:09.742Z,59.92
2022-10-29T18:08:40.997Z,59.97
2022-10-29T18:11:18.744Z,59.99
2022-10-29T18:13:49.179Z,60.00
2022-10-29T18:16:20.280Z,59.93
2022-10-29T18:19:01.483Z,60.00
2022-10-29T18:21:31.886Z,60.13
2022-10-29T18:24:01.031Z,60.11
2022-10-29T18:26:31.834Z,60.17
2022-10-29T18:29:02.733Z,60.18
2022-10-29T18:31:31.755Z,60.09
2022-10-29T18:34:02.493Z,60.21
2022-10-29T18:36:31.852Z,60.15
2022-10-29T18:39:01.070Z,60.23
2022-10-29T18:41:30.380Z,60.28
2022-10-29T18:43:59.708Z,60.32
2022-10-29T18:46:28.467Z,60.42
2022-10-29T18:48:57.758Z,60.33
2022-10-29T18:51:29.933Z,60.34
2022-10-29T18:53:58.674Z,60.49
2022-10-29T18:56:28.635Z,60.58
2022-10-29T18:58:58.540Z,60.58
2022-10-29T19:01:32.646Z,60.54
2022-10-29T19:04:03.942Z,60.71
2022-10-29T19:06:35.409Z,60.45
2022-10-29T19:09:07.529Z,60.68
2022-10-29T19:11:36.517Z,60.68
2022-10-29T19:14:07.504Z,60.63
2022-10-29T19:16:36.126Z,60.75
2022-10-29T19:19:07.911Z,60.85
2022-10-29T19:21:40.050Z,60.64
2022-10-29T19:24:16.024Z,60.74
2022-10-29T19:26:45.005Z,60.78
2022-10-29T19:29:14.035Z,60.81
2022-10-29T19:31:46.670Z,60.86
2022-10-29T19:34:15.476Z,60.82
2022-10-29T19:36:43.810Z,60.87
2022-10-29T19:39:12.333Z,60.89
2022-10-29T19:41:40.992Z,60.91
2022-10-29T19:44:09.460Z,60.91
2022-10-29T19:46:38.379Z,60.93
2022-10-29T19:49:06.947Z,60.83
2022-10-29T19:51:35.316Z,61.00
2022-10-29T19:54:05.553Z,60.80
2022-10-29T19:56:34.162Z,60.95
2022-10-29T19:59:04.914Z,60.93
2022-10-29T20:01:33.915Z,60.93
2022-10-29T20:04:03.408Z,61.00
2022-10-29T20:06:31.855Z,60.99
2022-10-29T20:09:00.427Z,60.93
2022-10-29T20:11:29.416Z,60.90
2022-10-29T20:13:57.848Z,60.85
2022-10-29T20:16:26.288Z,60.91
2022-10-29T20:18:55.203Z,60.92
2022-10-29T20:21:24.043Z,60.87
